OUK weather

Outer Skerries Airport
Grunay Island, Scotland, United Kingdom

Public forecast

Using degrees Celsius for public forecast. Weather courtesy of forecast.io.

Closest aviation weather report (METAR) to Outer Skerries Airport

Closest report is Scatsta Airport, 16.2 nm (30.0 km) W. Retrieved 2019/10/20 05:20 UTC (30 minutes ago):

EGPM 200520Z AUTO 01020KT 9999 OVC028/// 08/02 Q1012

Closest aviation forecast (TAF) to Outer Skerries Airport

Forecast is more than 12 hours old.

Closest forecast is Scatsta Airport, 16.2 nm (30.0 km) W. Retrieved 2013/04/29 03:39 UTC (6 years ago):

TAF TAF EGPM 290337Z 2903/2915 22005KT 9999 SCT030 PROB30 TEMPO 2903/2906 7000 SHRAGS BECMG 2906/2909 32015KT PROB40 TEMPO 2906/2915 6000 SHRA SHGS BKN012CB